AUA883 LOWW-LGSA
Flight info
| Callsign | AUA883 |
|---|---|
| Flight time | 2h 4m |
| Altitude | 37000 |
| Route | ARSIN1C/29 ARSIN DCT NALOX DCT OSDUK DCT DOBAR DCT PINDO DCT PIKOS DCT LUSES DCT ATV UP169 MANOK L612 RUSOS |
| Aircraft | A320/M-SDE3FGHIRWY/LB1 |
Departure
| Time | 2026-04-25 19:51 |
|---|---|
| Airport | Vienna International Airport (LOWW) |
Arrival
| Time | 2026-04-25 21:56 |
|---|---|
| Airport | Chania International Airport (LGSA) |
| Time | Latitude | Longitude | Altitude | Speed | Heading |
|---|---|---|---|---|---|
| 2026-04-25 19:05 | 48.11386 | 16.57247 | 610 ft | 0 kts | 206° |
| 2026-04-25 19:05 | 48.11390 | 16.57250 | 626 ft | 0 kts | 206° |
| 2026-04-25 19:43 | 48.11384 | 16.57246 | 622 ft | 3 kts | 206° |
| 2026-04-25 19:44 | 48.11364 | 16.57231 | 609 ft | 3 kts | 206° |
| 2026-04-25 19:44 | 48.11363 | 16.57231 | 609 ft | 2 kts | 206° |
| 2026-04-25 19:44 | 48.11368 | 16.57234 | 609 ft | 1 kts | 206° |
| 2026-04-25 19:44 | 48.11367 | 16.57233 | 609 ft | 0 kts | 206° |
| 2026-04-25 19:45 | 48.11370 | 16.57237 | 609 ft | 0 kts | 199° |
| 2026-04-25 19:46 | 48.11366 | 16.57234 | 609 ft | 0 kts | 199° |
| 2026-04-25 19:48 | 48.11352 | 16.57229 | 615 ft | 8 kts | 192° |
| 2026-04-25 19:48 | 48.11309 | 16.57256 | 619 ft | 7 kts | 135° |
| 2026-04-25 19:48 | 48.11272 | 16.57286 | 612 ft | 5 kts | 170° |
| 2026-04-25 19:49 | 48.11239 | 16.57277 | 622 ft | 4 kts | 204° |
| 2026-04-25 19:49 | 48.11231 | 16.57271 | 609 ft | 4 kts | 205° |
| 2026-04-25 19:49 | 48.11198 | 16.57248 | 609 ft | 4 kts | 206° |
| 2026-04-25 19:49 | 48.11172 | 16.57229 | 614 ft | 7 kts | 206° |
| 2026-04-25 19:50 | 48.11061 | 16.57125 | 617 ft | 8 kts | 246° |
| 2026-04-25 19:50 | 48.11073 | 16.57045 | 622 ft | 3 kts | 295° |
| 2026-04-25 19:50 | 48.11094 | 16.56982 | 624 ft | 16 kts | 296° |
| 2026-04-25 19:51 | 48.11248 | 16.56510 | 615 ft | 85 kts | 296° |
| 2026-04-25 19:51 | 48.11594 | 16.55448 | 619 ft | 139 kts | 296° |
| 2026-04-25 19:51 | 48.12050 | 16.54006 | 962 ft | 156 kts | 287° |
| 2026-04-25 19:51 | 48.11984 | 16.52427 | 1698 ft | 161 kts | 250° |
| 2026-04-25 19:52 | 48.11118 | 16.51308 | 2382 ft | 179 kts | 210° |
| 2026-04-25 19:52 | 48.09941 | 16.50670 | 3021 ft | 180 kts | 207° |
| 2026-04-25 19:52 | 48.08756 | 16.50067 | 3657 ft | 180 kts | 204° |
| 2026-04-25 19:52 | 48.07532 | 16.49447 | 4097 ft | 195 kts | 204° |
| 2026-04-25 19:53 | 48.06178 | 16.48746 | 4377 ft | 217 kts | 203° |
| 2026-04-25 19:53 | 48.04778 | 16.47685 | 4740 ft | 236 kts | 214° |
| 2026-04-25 19:53 | 48.03316 | 16.46306 | 5124 ft | 260 kts | 216° |
| 2026-04-25 19:53 | 48.01751 | 16.44777 | 5714 ft | 275 kts | 216° |
| 2026-04-25 19:54 | 48.00130 | 16.43221 | 6592 ft | 280 kts | 211° |
| 2026-04-25 19:54 | 47.98268 | 16.42304 | 7432 ft | 288 kts | 188° |
| 2026-04-25 19:54 | 47.96264 | 16.42586 | 8308 ft | 295 kts | 163° |
| 2026-04-25 19:54 | 47.95615 | 16.42961 | 8598 ft | 297 kts | 158° |
| 2026-04-25 19:55 | 47.92463 | 16.45138 | 10006 ft | 304 kts | 156° |
| 2026-04-25 19:55 | 47.90532 | 16.46621 | 10439 ft | 324 kts | 154° |
| 2026-04-25 19:55 | 47.88494 | 16.48319 | 10721 ft | 346 kts | 152° |
| 2026-04-25 19:55 | 47.86385 | 16.50149 | 11315 ft | 355 kts | 152° |
| 2026-04-25 19:56 | 47.84242 | 16.52029 | 12042 ft | 360 kts | 152° |
| 2026-04-25 19:56 | 47.82071 | 16.53924 | 12771 ft | 364 kts | 152° |
| 2026-04-25 19:56 | 47.79868 | 16.55828 | 13487 ft | 369 kts | 153° |
| 2026-04-25 19:56 | 47.77631 | 16.57741 | 14135 ft | 373 kts | 153° |
| 2026-04-25 19:57 | 47.75362 | 16.59664 | 14749 ft | 377 kts | 153° |
| 2026-04-25 19:57 | 47.73067 | 16.61597 | 15378 ft | 381 kts | 153° |
| 2026-04-25 19:57 | 47.70749 | 16.63549 | 16021 ft | 385 kts | 153° |
| 2026-04-25 19:57 | 47.68406 | 16.65523 | 16657 ft | 389 kts | 153° |
| 2026-04-25 19:58 | 47.66045 | 16.67512 | 17271 ft | 393 kts | 153° |
| 2026-04-25 19:58 | 47.63655 | 16.69523 | 17865 ft | 397 kts | 153° |
| 2026-04-25 19:58 | 47.61240 | 16.71551 | 18432 ft | 401 kts | 153° |
| 2026-04-25 19:58 | 47.58780 | 16.73536 | 18955 ft | 403 kts | 158° |
| 2026-04-25 19:59 | 47.56158 | 16.74966 | 19484 ft | 401 kts | 169° |
| 2026-04-25 19:59 | 47.53419 | 16.75677 | 20011 ft | 399 kts | 180° |
| 2026-04-25 19:59 | 47.50643 | 16.75928 | 20535 ft | 401 kts | 181° |
| 2026-04-25 19:59 | 47.47848 | 16.76183 | 21051 ft | 404 kts | 180° |
| 2026-04-25 20:00 | 47.45035 | 16.76451 | 21561 ft | 407 kts | 180° |
| 2026-04-25 20:00 | 47.44080 | 16.76543 | 21726 ft | 408 kts | 180° |
| 2026-04-25 20:00 | 47.39352 | 16.77007 | 22572 ft | 411 kts | 180° |
| 2026-04-25 20:00 | 47.36488 | 16.77288 | 22920 ft | 413 kts | 180° |
| 2026-04-25 20:01 | 47.30768 | 16.77845 | 22985 ft | 411 kts | 180° |
| 2026-04-25 20:01 | 47.27911 | 16.78121 | 22986 ft | 411 kts | 180° |
| 2026-04-25 20:01 | 47.25059 | 16.78399 | 22979 ft | 411 kts | 180° |
| 2026-04-25 20:02 | 47.22205 | 16.78673 | 22981 ft | 411 kts | 180° |
| 2026-04-25 20:02 | 47.19354 | 16.78945 | 22969 ft | 411 kts | 180° |
| 2026-04-25 20:02 | 47.16496 | 16.79215 | 22980 ft | 413 kts | 180° |
| 2026-04-25 20:02 | 47.13624 | 16.79484 | 22981 ft | 413 kts | 180° |
| 2026-04-25 20:03 | 47.10756 | 16.79755 | 22980 ft | 414 kts | 180° |
| 2026-04-25 20:03 | 47.07882 | 16.80026 | 22980 ft | 414 kts | 180° |
| 2026-04-25 20:03 | 47.05012 | 16.80297 | 22981 ft | 414 kts | 180° |
| 2026-04-25 20:03 | 47.02137 | 16.80564 | 22981 ft | 414 kts | 180° |
| 2026-04-25 20:04 | 46.99263 | 16.80830 | 22983 ft | 414 kts | 180° |
| 2026-04-25 20:04 | 46.96391 | 16.81099 | 22977 ft | 414 kts | 180° |
| 2026-04-25 20:04 | 46.93519 | 16.81373 | 22986 ft | 413 kts | 180° |
| 2026-04-25 20:04 | 46.90649 | 16.81784 | 23104 ft | 419 kts | 173° |
| 2026-04-25 20:05 | 46.87812 | 16.82895 | 23604 ft | 426 kts | 163° |
| 2026-04-25 20:05 | 46.85148 | 16.84723 | 24002 ft | 433 kts | 152° |
| 2026-04-25 20:05 | 46.82688 | 16.87299 | 24403 ft | 439 kts | 142° |
| 2026-04-25 20:05 | 46.80359 | 16.90192 | 24808 ft | 441 kts | 142° |
| 2026-04-25 20:06 | 46.78020 | 16.93108 | 25189 ft | 444 kts | 142° |
| 2026-04-25 20:06 | 46.75663 | 16.96041 | 25563 ft | 446 kts | 142° |
| 2026-04-25 20:06 | 46.73295 | 16.98985 | 25929 ft | 449 kts | 142° |
| 2026-04-25 20:06 | 46.70913 | 17.01944 | 26321 ft | 451 kts | 143° |
| 2026-04-25 20:07 | 46.69298 | 17.03947 | 26566 ft | 452 kts | 143° |
| 2026-04-25 20:07 | 46.66110 | 17.07885 | 27050 ft | 455 kts | 143° |
| 2026-04-25 20:07 | 46.64474 | 17.09903 | 27293 ft | 457 kts | 143° |
| 2026-04-25 20:07 | 46.62077 | 17.12855 | 27638 ft | 459 kts | 143° |
| 2026-04-25 20:08 | 46.59599 | 17.15899 | 28005 ft | 461 kts | 143° |
| 2026-04-25 20:08 | 46.57141 | 17.18910 | 28362 ft | 463 kts | 143° |
| 2026-04-25 20:08 | 46.54668 | 17.21937 | 28701 ft | 466 kts | 143° |
| 2026-04-25 20:08 | 46.52221 | 17.24932 | 29043 ft | 468 kts | 143° |
| 2026-04-25 20:09 | 46.49727 | 17.27986 | 29368 ft | 470 kts | 143° |
| 2026-04-25 20:09 | 46.47225 | 17.31052 | 29670 ft | 472 kts | 143° |
| 2026-04-25 20:09 | 46.44713 | 17.34128 | 30017 ft | 473 kts | 143° |
| 2026-04-25 20:09 | 46.42193 | 17.37210 | 30298 ft | 475 kts | 143° |
| 2026-04-25 20:10 | 46.40484 | 17.39298 | 30463 ft | 476 kts | 143° |
| 2026-04-25 20:10 | 46.37117 | 17.43402 | 30791 ft | 479 kts | 143° |
| 2026-04-25 20:10 | 46.34561 | 17.46507 | 31040 ft | 481 kts | 143° |
| 2026-04-25 20:10 | 46.31991 | 17.49622 | 31300 ft | 482 kts | 143° |
| 2026-04-25 20:11 | 46.29417 | 17.52737 | 31611 ft | 483 kts | 143° |
| 2026-04-25 20:11 | 46.26841 | 17.55850 | 31941 ft | 483 kts | 143° |
| 2026-04-25 20:11 | 46.24264 | 17.58962 | 32277 ft | 482 kts | 143° |
| 2026-04-25 20:11 | 46.21693 | 17.62071 | 32591 ft | 482 kts | 143° |
| 2026-04-25 20:12 | 46.19125 | 17.65177 | 32947 ft | 481 kts | 143° |
| 2026-04-25 20:12 | 46.16559 | 17.68272 | 33299 ft | 480 kts | 143° |
| 2026-04-25 20:12 | 46.13994 | 17.71356 | 33639 ft | 480 kts | 144° |
| 2026-04-25 20:12 | 46.12297 | 17.73391 | 33875 ft | 479 kts | 144° |
| 2026-04-25 20:13 | 46.08868 | 17.77502 | 34273 ft | 479 kts | 144° |
| 2026-04-25 20:13 | 46.06303 | 17.80576 | 34547 ft | 479 kts | 144° |
| 2026-04-25 20:13 | 46.03742 | 17.83640 | 34838 ft | 479 kts | 144° |
| 2026-04-25 20:13 | 46.01179 | 17.86705 | 35111 ft | 479 kts | 144° |
| 2026-04-25 20:14 | 45.98620 | 17.89766 | 35381 ft | 478 kts | 144° |
| 2026-04-25 20:14 | 45.96064 | 17.92817 | 35632 ft | 477 kts | 144° |
| 2026-04-25 20:14 | 45.93509 | 17.95859 | 35885 ft | 477 kts | 144° |
| 2026-04-25 20:14 | 45.90953 | 17.98899 | 36133 ft | 477 kts | 144° |
| 2026-04-25 20:15 | 45.88398 | 18.01931 | 36378 ft | 476 kts | 144° |
| 2026-04-25 20:15 | 45.85842 | 18.04963 | 36606 ft | 476 kts | 144° |
| 2026-04-25 20:15 | 45.83292 | 18.07988 | 36828 ft | 476 kts | 144° |
| 2026-04-25 20:15 | 45.80731 | 18.11003 | 36981 ft | 475 kts | 147° |
| 2026-04-25 20:16 | 45.75057 | 18.15523 | 36997 ft | 462 kts | 164° |
| 2026-04-25 20:16 | 45.69065 | 18.18876 | 36989 ft | 462 kts | 163° |
| 2026-04-25 20:17 | 45.63102 | 18.22299 | 36994 ft | 462 kts | 163° |
| 2026-04-25 20:17 | 45.57139 | 18.25725 | 36994 ft | 462 kts | 163° |
| 2026-04-25 20:18 | 45.51158 | 18.29126 | 36996 ft | 463 kts | 163° |
| 2026-04-25 20:18 | 45.45218 | 18.32503 | 36986 ft | 463 kts | 163° |
| 2026-04-25 20:19 | 45.39232 | 18.35899 | 36993 ft | 463 kts | 163° |
| 2026-04-25 20:19 | 45.33245 | 18.39288 | 36999 ft | 463 kts | 163° |
| 2026-04-25 20:20 | 45.27260 | 18.42665 | 37006 ft | 463 kts | 163° |
| 2026-04-25 20:20 | 45.21269 | 18.46026 | 37005 ft | 463 kts | 163° |
| 2026-04-25 20:21 | 45.15272 | 18.49389 | 37002 ft | 463 kts | 163° |
| 2026-04-25 20:21 | 45.09274 | 18.52745 | 37002 ft | 464 kts | 163° |
| 2026-04-25 20:22 | 45.04288 | 18.55534 | 37006 ft | 464 kts | 163° |
| 2026-04-25 20:22 | 44.97279 | 18.59451 | 37001 ft | 463 kts | 163° |
| 2026-04-25 20:23 | 44.91283 | 18.62792 | 37014 ft | 463 kts | 163° |
| 2026-04-25 20:23 | 44.85286 | 18.66118 | 37011 ft | 463 kts | 163° |
| 2026-04-25 20:24 | 44.79284 | 18.69437 | 37000 ft | 463 kts | 162° |
| 2026-04-25 20:24 | 44.73283 | 18.72754 | 37014 ft | 463 kts | 163° |
| 2026-04-25 20:25 | 44.67282 | 18.76055 | 37011 ft | 463 kts | 163° |
| 2026-04-25 20:25 | 44.61281 | 18.79354 | 37016 ft | 463 kts | 163° |
| 2026-04-25 20:26 | 44.55283 | 18.82647 | 37010 ft | 463 kts | 162° |
| 2026-04-25 20:26 | 44.49283 | 18.85926 | 37023 ft | 463 kts | 162° |
| 2026-04-25 20:27 | 44.43285 | 18.89205 | 37024 ft | 463 kts | 162° |
| 2026-04-25 20:27 | 44.37332 | 18.92458 | 37015 ft | 462 kts | 162° |
| 2026-04-25 20:28 | 44.31343 | 18.95721 | 37025 ft | 462 kts | 162° |
| 2026-04-25 20:28 | 44.25355 | 18.98973 | 37028 ft | 462 kts | 162° |
| 2026-04-25 20:29 | 44.19365 | 19.02226 | 37039 ft | 462 kts | 162° |
| 2026-04-25 20:29 | 44.13373 | 19.05461 | 37036 ft | 462 kts | 162° |
| 2026-04-25 20:30 | 44.07385 | 19.08684 | 37042 ft | 461 kts | 162° |
| 2026-04-25 20:30 | 44.01391 | 19.11903 | 37051 ft | 462 kts | 162° |
| 2026-04-25 20:31 | 43.95396 | 19.15126 | 37053 ft | 462 kts | 162° |
| 2026-04-25 20:31 | 43.89406 | 19.18343 | 37039 ft | 461 kts | 162° |
| 2026-04-25 20:32 | 43.83417 | 19.21546 | 37055 ft | 462 kts | 161° |
| 2026-04-25 20:32 | 43.77415 | 19.24741 | 37053 ft | 462 kts | 162° |
| 2026-04-25 20:33 | 43.71419 | 19.27933 | 37044 ft | 462 kts | 161° |
| 2026-04-25 20:33 | 43.66394 | 19.30608 | 37052 ft | 462 kts | 161° |
| 2026-04-25 20:34 | 43.59428 | 19.34293 | 37060 ft | 462 kts | 161° |
| 2026-04-25 20:34 | 43.53431 | 19.37463 | 37063 ft | 462 kts | 161° |
| 2026-04-25 20:35 | 43.47433 | 19.40635 | 37061 ft | 461 kts | 161° |
| 2026-04-25 20:35 | 43.41443 | 19.43790 | 37066 ft | 461 kts | 161° |
| 2026-04-25 20:36 | 43.35456 | 19.46937 | 37071 ft | 460 kts | 161° |
| 2026-04-25 20:36 | 43.29467 | 19.50067 | 37068 ft | 461 kts | 161° |
| 2026-04-25 20:37 | 43.23474 | 19.53199 | 37070 ft | 461 kts | 161° |
| 2026-04-25 20:37 | 43.17478 | 19.56332 | 37074 ft | 461 kts | 161° |
| 2026-04-25 20:38 | 43.11482 | 19.59454 | 37070 ft | 461 kts | 161° |
| 2026-04-25 20:38 | 43.05486 | 19.62572 | 37069 ft | 461 kts | 161° |
| 2026-04-25 20:39 | 42.99487 | 19.65692 | 37067 ft | 461 kts | 161° |
| 2026-04-25 20:39 | 42.95519 | 19.67753 | 37070 ft | 461 kts | 161° |
| 2026-04-25 20:40 | 42.87538 | 19.71893 | 37056 ft | 461 kts | 161° |
| 2026-04-25 20:40 | 42.81547 | 19.74979 | 37060 ft | 460 kts | 161° |
| 2026-04-25 20:41 | 42.75557 | 19.78058 | 37060 ft | 460 kts | 161° |
| 2026-04-25 20:41 | 42.69567 | 19.81134 | 37065 ft | 461 kts | 160° |
| 2026-04-25 20:42 | 42.63568 | 19.84217 | 37056 ft | 461 kts | 160° |
| 2026-04-25 20:42 | 42.57565 | 19.87290 | 37056 ft | 461 kts | 160° |
| 2026-04-25 20:43 | 42.51558 | 19.90359 | 37056 ft | 461 kts | 160° |
| 2026-04-25 20:43 | 42.45555 | 19.93415 | 37044 ft | 461 kts | 160° |
| 2026-04-25 20:44 | 42.39548 | 19.96461 | 37057 ft | 461 kts | 160° |
| 2026-04-25 20:44 | 42.33547 | 19.99497 | 37055 ft | 460 kts | 160° |
| 2026-04-25 20:45 | 42.27550 | 20.02526 | 37051 ft | 460 kts | 160° |
| 2026-04-25 20:45 | 42.21554 | 20.05557 | 37050 ft | 460 kts | 160° |
| 2026-04-25 20:46 | 42.15566 | 20.08582 | 37051 ft | 460 kts | 160° |
| 2026-04-25 20:46 | 42.09577 | 20.11596 | 37054 ft | 459 kts | 160° |
| 2026-04-25 20:47 | 42.03591 | 20.14604 | 37062 ft | 459 kts | 160° |
| 2026-04-25 20:47 | 41.97605 | 20.17613 | 37056 ft | 459 kts | 159° |
| 2026-04-25 20:48 | 41.91616 | 20.20608 | 37060 ft | 459 kts | 159° |
| 2026-04-25 20:48 | 41.85629 | 20.23596 | 37058 ft | 459 kts | 160° |
| 2026-04-25 20:49 | 41.79641 | 20.26577 | 37057 ft | 459 kts | 159° |
| 2026-04-25 20:49 | 41.73653 | 20.29551 | 37057 ft | 459 kts | 159° |
| 2026-04-25 20:50 | 41.67672 | 20.32517 | 37059 ft | 459 kts | 159° |
| 2026-04-25 20:50 | 41.61691 | 20.35479 | 37059 ft | 458 kts | 159° |
| 2026-04-25 20:51 | 41.55709 | 20.38435 | 37062 ft | 458 kts | 159° |
| 2026-04-25 20:51 | 41.49733 | 20.41376 | 37058 ft | 458 kts | 159° |
| 2026-04-25 20:52 | 41.45777 | 20.43327 | 37060 ft | 458 kts | 159° |
| 2026-04-25 20:52 | 41.38800 | 20.46768 | 37060 ft | 458 kts | 159° |
| 2026-04-25 20:53 | 41.32825 | 20.49700 | 37068 ft | 458 kts | 158° |
| 2026-04-25 20:53 | 41.26911 | 20.52826 | 37071 ft | 457 kts | 156° |
| 2026-04-25 20:54 | 41.21045 | 20.56118 | 37070 ft | 457 kts | 156° |
| 2026-04-25 20:54 | 41.15179 | 20.59395 | 37069 ft | 457 kts | 156° |
| 2026-04-25 20:55 | 41.09296 | 20.62614 | 37079 ft | 457 kts | 156° |
| 2026-04-25 20:55 | 41.03407 | 20.65800 | 37077 ft | 457 kts | 156° |
| 2026-04-25 20:56 | 40.97521 | 20.68976 | 37074 ft | 457 kts | 156° |
| 2026-04-25 20:56 | 40.91639 | 20.72161 | 37081 ft | 457 kts | 156° |
| 2026-04-25 20:57 | 40.85796 | 20.75330 | 37082 ft | 457 kts | 156° |
| 2026-04-25 20:57 | 40.79910 | 20.78505 | 37085 ft | 457 kts | 156° |
| 2026-04-25 20:58 | 40.74021 | 20.81675 | 37100 ft | 457 kts | 156° |
| 2026-04-25 20:58 | 40.68128 | 20.84844 | 37102 ft | 458 kts | 156° |
| 2026-04-25 20:59 | 40.62233 | 20.88021 | 37099 ft | 457 kts | 156° |
| 2026-04-25 20:59 | 40.56338 | 20.91176 | 37101 ft | 457 kts | 156° |
| 2026-04-25 21:00 | 40.51441 | 20.93793 | 37100 ft | 457 kts | 155° |
| 2026-04-25 21:00 | 40.45207 | 20.98889 | 37104 ft | 450 kts | 135° |
| 2026-04-25 21:01 | 40.42862 | 21.01611 | 37103 ft | 450 kts | 135° |
| 2026-04-25 21:01 | 40.38161 | 21.07038 | 37096 ft | 450 kts | 135° |
| 2026-04-25 21:02 | 40.33453 | 21.12452 | 37095 ft | 450 kts | 136° |
| 2026-04-25 21:02 | 40.28740 | 21.17857 | 37100 ft | 450 kts | 135° |
| 2026-04-25 21:03 | 40.24032 | 21.23256 | 37096 ft | 450 kts | 135° |
| 2026-04-25 21:03 | 40.19325 | 21.28648 | 37090 ft | 449 kts | 135° |
| 2026-04-25 21:04 | 40.14621 | 21.34026 | 37095 ft | 449 kts | 135° |
| 2026-04-25 21:04 | 40.09913 | 21.39388 | 37093 ft | 449 kts | 135° |
| 2026-04-25 21:05 | 40.05205 | 21.44741 | 37091 ft | 449 kts | 135° |
| 2026-04-25 21:05 | 40.00493 | 21.50084 | 37091 ft | 449 kts | 135° |
| 2026-04-25 21:06 | 39.95784 | 21.55432 | 37089 ft | 449 kts | 134° |
| 2026-04-25 21:06 | 39.91342 | 21.61112 | 37098 ft | 447 kts | 130° |
| 2026-04-25 21:07 | 39.87106 | 21.67018 | 37102 ft | 446 kts | 129° |
| 2026-04-25 21:07 | 39.82848 | 21.72895 | 37098 ft | 446 kts | 130° |
| 2026-04-25 21:08 | 39.78520 | 21.78685 | 37093 ft | 446 kts | 131° |
| 2026-04-25 21:08 | 39.74164 | 21.84432 | 37096 ft | 446 kts | 131° |
| 2026-04-25 21:09 | 39.67686 | 21.93013 | 37092 ft | 445 kts | 130° |
| 2026-04-25 21:09 | 39.63347 | 21.98756 | 37091 ft | 445 kts | 131° |
| 2026-04-25 21:10 | 39.59015 | 22.04486 | 37086 ft | 445 kts | 130° |
| 2026-04-25 21:10 | 39.54690 | 22.10214 | 37079 ft | 444 kts | 130° |
| 2026-04-25 21:11 | 39.50358 | 22.15927 | 37081 ft | 445 kts | 131° |
| 2026-04-25 21:11 | 39.46020 | 22.21634 | 37079 ft | 445 kts | 131° |
| 2026-04-25 21:12 | 39.41674 | 22.27339 | 37081 ft | 445 kts | 131° |
| 2026-04-25 21:12 | 39.38059 | 22.32076 | 37080 ft | 445 kts | 131° |
| 2026-04-25 21:13 | 39.32939 | 22.38769 | 37090 ft | 445 kts | 131° |
| 2026-04-25 21:13 | 39.28207 | 22.43979 | 37088 ft | 449 kts | 138° |
| 2026-04-25 21:14 | 39.23309 | 22.48901 | 37096 ft | 449 kts | 138° |
| 2026-04-25 21:14 | 39.18373 | 22.53849 | 37061 ft | 450 kts | 139° |
| 2026-04-25 21:15 | 39.13429 | 22.58785 | 37052 ft | 450 kts | 139° |
| 2026-04-25 21:15 | 39.08481 | 22.63715 | 37050 ft | 450 kts | 139° |
| 2026-04-25 21:16 | 39.03534 | 22.68641 | 37056 ft | 450 kts | 138° |
| 2026-04-25 21:16 | 38.98586 | 22.73566 | 37054 ft | 450 kts | 139° |
| 2026-04-25 21:17 | 38.93631 | 22.78488 | 37080 ft | 451 kts | 139° |
| 2026-04-25 21:17 | 38.88666 | 22.83412 | 37078 ft | 451 kts | 139° |
| 2026-04-25 21:18 | 38.83692 | 22.88332 | 37073 ft | 451 kts | 139° |
| 2026-04-25 21:18 | 38.78716 | 22.93244 | 37079 ft | 451 kts | 139° |
| 2026-04-25 21:19 | 38.73737 | 22.98151 | 37072 ft | 451 kts | 139° |
| 2026-04-25 21:19 | 38.68760 | 23.03047 | 37069 ft | 451 kts | 139° |
| 2026-04-25 21:20 | 38.64619 | 23.07106 | 37063 ft | 451 kts | 139° |
| 2026-04-25 21:20 | 38.58792 | 23.12801 | 37073 ft | 451 kts | 139° |
| 2026-04-25 21:21 | 38.53812 | 23.17674 | 37081 ft | 451 kts | 139° |
| 2026-04-25 21:21 | 38.48870 | 23.22514 | 37079 ft | 451 kts | 139° |
| 2026-04-25 21:22 | 38.43892 | 23.27372 | 37072 ft | 451 kts | 140° |
| 2026-04-25 21:22 | 38.38914 | 23.32218 | 37067 ft | 450 kts | 139° |
| 2026-04-25 21:23 | 38.33935 | 23.37058 | 37065 ft | 450 kts | 140° |
| 2026-04-25 21:23 | 38.28958 | 23.41882 | 37061 ft | 450 kts | 140° |
| 2026-04-25 21:24 | 38.23976 | 23.46705 | 37034 ft | 450 kts | 140° |
| 2026-04-25 21:24 | 38.18996 | 23.51513 | 37019 ft | 450 kts | 140° |
| 2026-04-25 21:25 | 38.14012 | 23.56314 | 37008 ft | 450 kts | 140° |
| 2026-04-25 21:25 | 38.09031 | 23.61117 | 37009 ft | 449 kts | 140° |
| 2026-04-25 21:26 | 38.04047 | 23.65910 | 37008 ft | 449 kts | 140° |
| 2026-04-25 21:26 | 37.99062 | 23.70688 | 37019 ft | 449 kts | 140° |
| 2026-04-25 21:27 | 37.94074 | 23.75467 | 37048 ft | 449 kts | 140° |
| 2026-04-25 21:27 | 37.88747 | 23.79593 | 37042 ft | 453 kts | 156° |
| 2026-04-25 21:28 | 37.82601 | 23.81454 | 37042 ft | 457 kts | 171° |
| 2026-04-25 21:28 | 37.76331 | 23.82462 | 37024 ft | 457 kts | 171° |
| 2026-04-25 21:29 | 37.70018 | 23.83485 | 37036 ft | 457 kts | 171° |
| 2026-04-25 21:29 | 37.63702 | 23.84508 | 37021 ft | 458 kts | 171° |
| 2026-04-25 21:30 | 37.57386 | 23.85520 | 37017 ft | 458 kts | 171° |
| 2026-04-25 21:30 | 37.52088 | 23.86364 | 37036 ft | 458 kts | 171° |
| 2026-04-25 21:31 | 37.44748 | 23.87530 | 37038 ft | 457 kts | 171° |
| 2026-04-25 21:31 | 37.38435 | 23.88535 | 37035 ft | 457 kts | 171° |
| 2026-04-25 21:32 | 37.32126 | 23.89551 | 37019 ft | 457 kts | 171° |
| 2026-04-25 21:32 | 37.25820 | 23.90560 | 37034 ft | 457 kts | 172° |
| 2026-04-25 21:33 | 37.19512 | 23.91554 | 37018 ft | 457 kts | 171° |
| 2026-04-25 21:33 | 37.13209 | 23.92544 | 37016 ft | 457 kts | 171° |
| 2026-04-25 21:34 | 37.06906 | 23.93543 | 37021 ft | 457 kts | 172° |
| 2026-04-25 21:34 | 37.00601 | 23.94538 | 37015 ft | 457 kts | 172° |
| 2026-04-25 21:35 | 36.94334 | 23.95531 | 37008 ft | 457 kts | 172° |
| 2026-04-25 21:35 | 36.91172 | 23.96031 | 36540 ft | 461 kts | 172° |
| 2026-04-25 21:35 | 36.87953 | 23.96539 | 35396 ft | 471 kts | 171° |
| 2026-04-25 21:36 | 36.84679 | 23.97056 | 34440 ft | 477 kts | 171° |
| 2026-04-25 21:36 | 36.81373 | 23.97574 | 33586 ft | 479 kts | 171° |
| 2026-04-25 21:36 | 36.78069 | 23.98087 | 32777 ft | 478 kts | 171° |
| 2026-04-25 21:36 | 36.74774 | 23.98598 | 32047 ft | 476 kts | 171° |
| 2026-04-25 21:37 | 36.71502 | 23.99108 | 31395 ft | 471 kts | 171° |
| 2026-04-25 21:37 | 36.70406 | 23.99280 | 31183 ft | 470 kts | 171° |
| 2026-04-25 21:37 | 36.65055 | 24.00115 | 30171 ft | 462 kts | 171° |
| 2026-04-25 21:37 | 36.61878 | 24.00608 | 29478 ft | 458 kts | 170° |
| 2026-04-25 21:38 | 36.58723 | 24.01104 | 28680 ft | 457 kts | 170° |
| 2026-04-25 21:38 | 36.55581 | 24.01598 | 28089 ft | 452 kts | 170° |
| 2026-04-25 21:38 | 36.52478 | 24.02081 | 27517 ft | 447 kts | 170° |
| 2026-04-25 21:38 | 36.49414 | 24.02557 | 26963 ft | 442 kts | 170° |
| 2026-04-25 21:39 | 36.46383 | 24.03037 | 26426 ft | 436 kts | 168° |
| 2026-04-25 21:39 | 36.43482 | 24.03950 | 25920 ft | 425 kts | 155° |
| 2026-04-25 21:39 | 36.40861 | 24.05523 | 25444 ft | 414 kts | 143° |
| 2026-04-25 21:39 | 36.38599 | 24.07640 | 24977 ft | 402 kts | 132° |
| 2026-04-25 21:40 | 36.36753 | 24.10180 | 24500 ft | 391 kts | 122° |
| 2026-04-25 21:40 | 36.35146 | 24.12873 | 24047 ft | 387 kts | 122° |
| 2026-04-25 21:40 | 36.33548 | 24.15538 | 23581 ft | 383 kts | 122° |
| 2026-04-25 21:40 | 36.31965 | 24.18169 | 23060 ft | 378 kts | 122° |
| 2026-04-25 21:41 | 36.30401 | 24.20766 | 22590 ft | 373 kts | 122° |
| 2026-04-25 21:41 | 36.29374 | 24.22469 | 22280 ft | 370 kts | 122° |
| 2026-04-25 21:41 | 36.27344 | 24.25832 | 21680 ft | 365 kts | 122° |
| 2026-04-25 21:41 | 36.25832 | 24.28343 | 21213 ft | 362 kts | 122° |
| 2026-04-25 21:42 | 36.24330 | 24.30831 | 20750 ft | 359 kts | 123° |
| 2026-04-25 21:42 | 36.22560 | 24.33029 | 20290 ft | 364 kts | 139° |
| 2026-04-25 21:42 | 36.20339 | 24.34568 | 19786 ft | 371 kts | 155° |
| 2026-04-25 21:42 | 36.18650 | 24.35149 | 19434 ft | 376 kts | 167° |
| 2026-04-25 21:43 | 36.16025 | 24.35238 | 18924 ft | 382 kts | 184° |
| 2026-04-25 21:43 | 36.13412 | 24.34566 | 18394 ft | 384 kts | 190° |
| 2026-04-25 21:43 | 36.10805 | 24.33821 | 17826 ft | 384 kts | 190° |
| 2026-04-25 21:43 | 36.08207 | 24.33082 | 17324 ft | 382 kts | 190° |
| 2026-04-25 21:44 | 36.05620 | 24.32352 | 16794 ft | 381 kts | 190° |
| 2026-04-25 21:44 | 36.03043 | 24.31628 | 16281 ft | 379 kts | 190° |
| 2026-04-25 21:44 | 35.97927 | 24.30200 | 15366 ft | 374 kts | 190° |
| 2026-04-25 21:45 | 35.95401 | 24.29494 | 14917 ft | 371 kts | 190° |
| 2026-04-25 21:45 | 35.93738 | 24.29029 | 14628 ft | 369 kts | 190° |
| 2026-04-25 21:45 | 35.90435 | 24.28106 | 14039 ft | 366 kts | 190° |
| 2026-04-25 21:45 | 35.87959 | 24.27416 | 13564 ft | 364 kts | 190° |
| 2026-04-25 21:46 | 35.85498 | 24.26732 | 13101 ft | 361 kts | 190° |
| 2026-04-25 21:46 | 35.83064 | 24.26051 | 12648 ft | 357 kts | 189° |
| 2026-04-25 21:46 | 35.80652 | 24.25377 | 12211 ft | 354 kts | 189° |
| 2026-04-25 21:46 | 35.78259 | 24.24712 | 11743 ft | 351 kts | 189° |
| 2026-04-25 21:47 | 35.75874 | 24.24186 | 11283 ft | 344 kts | 178° |
| 2026-04-25 21:47 | 35.73563 | 24.24606 | 10746 ft | 333 kts | 155° |
| 2026-04-25 21:47 | 35.71630 | 24.26058 | 10270 ft | 320 kts | 132° |
| 2026-04-25 21:47 | 35.70340 | 24.28161 | 10135 ft | 300 kts | 115° |
| 2026-04-25 21:48 | 35.69331 | 24.30345 | 10004 ft | 288 kts | 118° |
| 2026-04-25 21:48 | 35.68195 | 24.32328 | 9883 ft | 279 kts | 123° |
| 2026-04-25 21:48 | 35.66948 | 24.34139 | 9538 ft | 277 kts | 128° |
| 2026-04-25 21:48 | 35.65579 | 24.35799 | 9015 ft | 275 kts | 133° |
| 2026-04-25 21:49 | 35.64094 | 24.37287 | 8307 ft | 276 kts | 138° |
| 2026-04-25 21:49 | 35.62495 | 24.38588 | 7621 ft | 276 kts | 144° |
| 2026-04-25 21:49 | 35.60797 | 24.39696 | 6941 ft | 277 kts | 150° |
| 2026-04-25 21:49 | 35.59010 | 24.40606 | 6232 ft | 279 kts | 156° |
| 2026-04-25 21:50 | 35.57158 | 24.41302 | 5522 ft | 278 kts | 162° |
| 2026-04-25 21:50 | 35.55280 | 24.41765 | 5062 ft | 269 kts | 168° |
| 2026-04-25 21:50 | 35.53497 | 24.41984 | 4935 ft | 247 kts | 173° |
| 2026-04-25 21:50 | 35.52388 | 24.42023 | 4871 ft | 235 kts | 176° |
| 2026-04-25 21:51 | 35.50222 | 24.41899 | 4715 ft | 233 kts | 182° |
| 2026-04-25 21:51 | 35.48617 | 24.41622 | 4609 ft | 233 kts | 187° |
| 2026-04-25 21:51 | 35.47032 | 24.41172 | 4496 ft | 235 kts | 195° |
| 2026-04-25 21:51 | 35.45731 | 24.40042 | 4361 ft | 231 kts | 238° |
| 2026-04-25 21:52 | 35.45345 | 24.38217 | 4182 ft | 221 kts | 280° |
| 2026-04-25 21:52 | 35.45734 | 24.36416 | 3864 ft | 219 kts | 296° |
| 2026-04-25 21:52 | 35.46351 | 24.34713 | 3565 ft | 219 kts | 301° |
| 2026-04-25 21:52 | 35.47013 | 24.33022 | 3279 ft | 220 kts | 300° |
| 2026-04-25 21:53 | 35.47650 | 24.31350 | 3206 ft | 211 kts | 300° |
| 2026-04-25 21:53 | 35.48273 | 24.29742 | 3023 ft | 209 kts | 301° |
| 2026-04-25 21:53 | 35.48881 | 24.28095 | 2524 ft | 212 kts | 298° |
| 2026-04-25 21:53 | 35.49435 | 24.26444 | 2179 ft | 206 kts | 297° |
| 2026-04-25 21:54 | 35.49959 | 24.24841 | 1909 ft | 197 kts | 297° |
| 2026-04-25 21:54 | 35.50450 | 24.23333 | 1650 ft | 184 kts | 296° |
| 2026-04-25 21:54 | 35.50898 | 24.21959 | 1413 ft | 168 kts | 296° |
| 2026-04-25 21:54 | 35.51304 | 24.20710 | 1193 ft | 150 kts | 296° |
| 2026-04-25 21:55 | 35.51677 | 24.19570 | 981 ft | 139 kts | 294° |
| 2026-04-25 21:55 | 35.52029 | 24.18477 | 802 ft | 137 kts | 292° |
| 2026-04-25 21:55 | 35.52382 | 24.17393 | 631 ft | 136 kts | 292° |
| 2026-04-25 21:55 | 35.52733 | 24.16323 | 503 ft | 129 kts | 291° |
| 2026-04-25 21:56 | 35.53010 | 24.15482 | 486 ft | 81 kts | 290° |
| 2026-04-25 21:56 | 35.53125 | 24.15119 | 486 ft | 61 kts | 292° |
| 2026-04-25 21:56 | 35.53309 | 24.14548 | 491 ft | 47 kts | 291° |
| 2026-04-25 21:56 | 35.53391 | 24.14301 | 497 ft | 13 kts | 295° |
| 2026-04-25 21:57 | 35.53447 | 24.14268 | 497 ft | 8 kts | 12° |
| 2026-04-25 21:57 | 35.53499 | 24.14294 | 495 ft | 8 kts | 22° |
| 2026-04-25 21:57 | 35.53546 | 24.14318 | 498 ft | 7 kts | 22° |
| 2026-04-25 21:57 | 35.53590 | 24.14338 | 498 ft | 6 kts | 19° |
| 2026-04-25 21:58 | 35.53629 | 24.14355 | 498 ft | 5 kts | 19° |
| 2026-04-25 21:58 | 35.53661 | 24.14366 | 498 ft | 4 kts | 0° |
| 2026-04-25 21:58 | 35.53688 | 24.14366 | 493 ft | 4 kts | 4° |
| 2026-04-25 21:58 | 35.53717 | 24.14376 | 494 ft | 4 kts | 21° |
| 2026-04-25 21:59 | 35.53739 | 24.14387 | 490 ft | 3 kts | 21° |
| 2026-04-25 21:59 | 35.53755 | 24.14394 | 493 ft | 2 kts | 22° |
| 2026-04-25 21:59 | 35.53760 | 24.14397 | 495 ft | 0 kts | 22° |